sensor_id;sensor_type;location;lat;lon;timestamp;pressure;altitude;pressure_sealevel;temperature;humidity
74218;BME280;62579;47.288;18.646;2023-11-19T00:00:46;100502.16;;;2.01;96.33
74218;BME280;62579;47.288;18.646;2023-11-19T00:03:11;100505.41;;;2.09;96.20
74218;BME280;62579;47.288;18.646;2023-11-19T00:05:38;100494.16;;;2.14;95.84
74218;BME280;62579;47.288;18.646;2023-11-19T00:08:03;100494.81;;;2.18;95.67
74218;BME280;62579;47.288;18.646;2023-11-19T00:10:29;100487.19;;;2.16;95.57
74218;BME280;62579;47.288;18.646;2023-11-19T00:12:55;100496.41;;;2.15;95.38
74218;BME280;62579;47.288;18.646;2023-11-19T00:15:21;100498.06;;;2.25;95.06
74218;BME280;62579;47.288;18.646;2023-11-19T00:17:49;100502.25;;;2.26;95.10
74218;BME280;62579;47.288;18.646;2023-11-19T00:20:15;100501.94;;;2.24;95.26
74218;BME280;62579;47.288;18.646;2023-11-19T00:22:41;100507.53;;;2.30;95.43
74218;BME280;62579;47.288;18.646;2023-11-19T00:25:09;100504.56;;;2.40;95.06
74218;BME280;62579;47.288;18.646;2023-11-19T00:27:34;100505.00;;;2.39;94.94
74218;BME280;62579;47.288;18.646;2023-11-19T00:30:00;100504.66;;;2.37;95.03
74218;BME280;62579;47.288;18.646;2023-11-19T00:32:25;100513.16;;;2.35;94.82
74218;BME280;62579;47.288;18.646;2023-11-19T00:34:50;100509.06;;;2.31;94.70
74218;BME280;62579;47.288;18.646;2023-11-19T00:37:16;100501.66;;;2.35;94.27
74218;BME280;62579;47.288;18.646;2023-11-19T00:39:42;100489.75;;;2.36;94.53
74218;BME280;62579;47.288;18.646;2023-11-19T00:42:07;100495.75;;;2.40;94.47
74218;BME280;62579;47.288;18.646;2023-11-19T00:44:32;100483.41;;;2.42;94.50
74218;BME280;62579;47.288;18.646;2023-11-19T00:46:58;100480.63;;;2.46;94.37
74218;BME280;62579;47.288;18.646;2023-11-19T00:49:24;100486.78;;;2.47;94.17
74218;BME280;62579;47.288;18.646;2023-11-19T00:51:49;100495.72;;;2.56;93.20
74218;BME280;62579;47.288;18.646;2023-11-19T00:54:15;100499.81;;;2.61;92.92
74218;BME280;62579;47.288;18.646;2023-11-19T00:56:40;100495.91;;;2.49;93.60
74218;BME280;62579;47.288;18.646;2023-11-19T00:59:05;100486.44;;;2.45;93.80
74218;BME280;62579;47.288;18.646;2023-11-19T01:01:30;100488.97;;;2.35;94.36
74218;BME280;62579;47.288;18.646;2023-11-19T01:03:56;100487.56;;;2.31;94.39
74218;BME280;62579;47.288;18.646;2023-11-19T01:06:31;100485.41;;;2.26;94.73
74218;BME280;62579;47.288;18.646;2023-11-19T01:08:57;100484.81;;;2.18;95.18
74218;BME280;62579;47.288;18.646;2023-11-19T01:11:23;100486.00;;;2.17;95.29
74218;BME280;62579;47.288;18.646;2023-11-19T01:13:49;100482.97;;;2.15;95.55
74218;BME280;62579;47.288;18.646;2023-11-19T01:16:14;100482.47;;;2.20;95.24
74218;BME280;62579;47.288;18.646;2023-11-19T01:18:40;100478.00;;;2.30;94.91
74218;BME280;62579;47.288;18.646;2023-11-19T01:21:05;100475.88;;;2.37;94.40
74218;BME280;62579;47.288;18.646;2023-11-19T01:23:30;100481.06;;;2.45;93.82
74218;BME280;62579;47.288;18.646;2023-11-19T01:25:56;100480.13;;;2.51;93.20
74218;BME280;62579;47.288;18.646;2023-11-19T01:28:21;100470.81;;;2.39;93.74
74218;BME280;62579;47.288;18.646;2023-11-19T01:30:46;100475.84;;;2.25;94.72
74218;BME280;62579;47.288;18.646;2023-11-19T01:33:11;100476.72;;;2.34;94.23
74218;BME280;62579;47.288;18.646;2023-11-19T01:35:36;100479.41;;;2.34;94.13
74218;BME280;62579;47.288;18.646;2023-11-19T01:38:02;100482.09;;;2.34;94.21
74218;BME280;62579;47.288;18.646;2023-11-19T01:40:27;100474.75;;;2.22;94.55
74218;BME280;62579;47.288;18.646;2023-11-19T01:42:52;100458.72;;;2.19;94.87
74218;BME280;62579;47.288;18.646;2023-11-19T01:45:27;100449.91;;;2.18;95.01
74218;BME280;62579;47.288;18.646;2023-11-19T01:47:54;100452.56;;;2.06;95.38
74218;BME280;62579;47.288;18.646;2023-11-19T01:50:19;100452.47;;;2.09;95.59
74218;BME280;62579;47.288;18.646;2023-11-19T01:52:44;100451.28;;;2.10;95.54
74218;BME280;62579;47.288;18.646;2023-11-19T01:55:10;100449.03;;;2.09;95.51
74218;BME280;62579;47.288;18.646;2023-11-19T01:57:36;100443.41;;;2.03;95.80
74218;BME280;62579;47.288;18.646;2023-11-19T02:00:03;100433.44;;;2.04;95.80
74218;BME280;62579;47.288;18.646;2023-11-19T02:02:28;100419.03;;;1.98;96.03
74218;BME280;62579;47.288;18.646;2023-11-19T02:04:54;100417.59;;;1.93;96.20
74218;BME280;62579;47.288;18.646;2023-11-19T02:07:20;100422.31;;;1.89;96.39
74218;BME280;62579;47.288;18.646;2023-11-19T02:09:45;100421.97;;;1.87;96.55
74218;BME280;62579;47.288;18.646;2023-11-19T02:12:10;100438.59;;;1.82;96.96
74218;BME280;62579;47.288;18.646;2023-11-19T02:14:40;100436.66;;;1.83;97.09
74218;BME280;62579;47.288;18.646;2023-11-19T02:17:05;100433.22;;;1.82;97.07
74218;BME280;62579;47.288;18.646;2023-11-19T02:19:30;100424.34;;;1.85;96.97
74218;BME280;62579;47.288;18.646;2023-11-19T02:21:55;100425.59;;;1.80;97.05
74218;BME280;62579;47.288;18.646;2023-11-19T02:24:22;100420.16;;;1.68;97.60
74218;BME280;62579;47.288;18.646;2023-11-19T02:29:13;100422.66;;;1.75;97.41
74218;BME280;62579;47.288;18.646;2023-11-19T02:31:38;100417.81;;;1.70;98.24
74218;BME280;62579;47.288;18.646;2023-11-19T02:34:04;100418.81;;;1.76;97.32
74218;BME280;62579;47.288;18.646;2023-11-19T02:36:29;100427.37;;;1.71;96.74
74218;BME280;62579;47.288;18.646;2023-11-19T02:38:54;100418.00;;;1.63;97.33
74218;BME280;62579;47.288;18.646;2023-11-19T02:41:20;100419.34;;;1.55;97.70
74218;BME280;62579;47.288;18.646;2023-11-19T02:43:45;100420.84;;;1.56;97.85
74218;BME280;62579;47.288;18.646;2023-11-19T02:46:13;100417.31;;;1.59;97.55
74218;BME280;62579;47.288;18.646;2023-11-19T02:48:38;100403.91;;;1.59;97.76
74218;BME280;62579;47.288;18.646;2023-11-19T02:51:04;100398.66;;;1.39;99.67
74218;BME280;62579;47.288;18.646;2023-11-19T02:53:30;100409.63;;;1.29;100.00
74218;BME280;62579;47.288;18.646;2023-11-19T02:55:56;100403.50;;;1.44;100.00
74218;BME280;62579;47.288;18.646;2023-11-19T02:58:27;100403.69;;;1.53;99.43
74218;BME280;62579;47.288;18.646;2023-11-19T03:00:53;100394.75;;;1.56;98.86
74218;BME280;62579;47.288;18.646;2023-11-19T03:03:26;100387.41;;;1.60;98.48
74218;BME280;62579;47.288;18.646;2023-11-19T03:06:03;100390.72;;;1.64;97.83
74218;BME280;62579;47.288;18.646;2023-11-19T03:08:30;100398.03;;;1.64;97.55
74218;BME280;62579;47.288;18.646;2023-11-19T03:10:56;100392.50;;;1.55;98.39
74218;BME280;62579;47.288;18.646;2023-11-19T03:13:21;100386.31;;;1.58;98.09
74218;BME280;62579;47.288;18.646;2023-11-19T03:15:47;100380.63;;;1.56;97.57
74218;BME280;62579;47.288;18.646;2023-11-19T03:18:12;100378.78;;;1.53;97.29
74218;BME280;62579;47.288;18.646;2023-11-19T03:20:37;100365.63;;;1.42;97.83
74218;BME280;62579;47.288;18.646;2023-11-19T03:23:02;100361.19;;;1.36;98.28
74218;BME280;62579;47.288;18.646;2023-11-19T03:28:03;100376.88;;;1.37;98.70
74218;BME280;62579;47.288;18.646;2023-11-19T03:30:29;100362.28;;;1.38;99.11
74218;BME280;62579;47.288;18.646;2023-11-19T03:32:55;100361.25;;;1.32;99.45
74218;BME280;62579;47.288;18.646;2023-11-19T03:35:20;100376.63;;;1.15;100.00
74218;BME280;62579;47.288;18.646;2023-11-19T03:37:45;100375.59;;;1.26;100.00
74218;BME280;62579;47.288;18.646;2023-11-19T03:40:11;100365.38;;;1.37;99.62
74218;BME280;62579;47.288;18.646;2023-11-19T03:42:37;100354.75;;;1.33;99.23
74218;BME280;62579;47.288;18.646;2023-11-19T03:45:05;100351.63;;;1.35;98.97
74218;BME280;62579;47.288;18.646;2023-11-19T03:47:33;100335.31;;;1.29;98.86
74218;BME280;62579;47.288;18.646;2023-11-19T03:50:02;100331.38;;;1.34;98.54
74218;BME280;62579;47.288;18.646;2023-11-19T03:52:28;100315.69;;;1.32;98.34
74218;BME280;62579;47.288;18.646;2023-11-19T03:54:54;100323.06;;;1.28;98.53
74218;BME280;62579;47.288;18.646;2023-11-19T03:57:20;100326.09;;;1.30;98.23
74218;BME280;62579;47.288;18.646;2023-11-19T03:59:45;100326.00;;;1.34;97.80
74218;BME280;62579;47.288;18.646;2023-11-19T04:02:10;100319.81;;;1.37;97.64
74218;BME280;62579;47.288;18.646;2023-11-19T04:04:36;100311.00;;;1.36;97.35
74218;BME280;62579;47.288;18.646;2023-11-19T04:07:02;100306.47;;;1.33;97.42
74218;BME280;62579;47.288;18.646;2023-11-19T04:09:28;100296.31;;;1.41;97.01
74218;BME280;62579;47.288;18.646;2023-11-19T04:11:53;100286.94;;;1.33;97.47
74218;BME280;62579;47.288;18.646;2023-11-19T04:14:18;100275.06;;;1.34;97.51
74218;BME280;62579;47.288;18.646;2023-11-19T04:16:44;100270.22;;;1.29;97.71
74218;BME280;62579;47.288;18.646;2023-11-19T04:19:10;100280.94;;;1.29;97.63
74218;BME280;62579;47.288;18.646;2023-11-19T04:21:35;100267.37;;;1.19;97.88
74218;BME280;62579;47.288;18.646;2023-11-19T04:24:01;100275.34;;;1.23;97.97
74218;BME280;62579;47.288;18.646;2023-11-19T04:26:26;100268.88;;;1.20;98.01
74218;BME280;62579;47.288;18.646;2023-11-19T04:28:51;100267.69;;;1.21;98.17
74218;BME280;62579;47.288;18.646;2023-11-19T04:31:17;100271.22;;;1.18;98.11
74218;BME280;62579;47.288;18.646;2023-11-19T04:33:42;100273.16;;;1.18;98.45
74218;BME280;62579;47.288;18.646;2023-11-19T04:36:08;100263.94;;;1.19;97.88
74218;BME280;62579;47.288;18.646;2023-11-19T04:38:34;100264.37;;;1.17;97.97
74218;BME280;62579;47.288;18.646;2023-11-19T04:40:59;100261.25;;;1.19;97.43
74218;BME280;62579;47.288;18.646;2023-11-19T04:43:25;100273.81;;;1.22;97.12
74218;BME280;62579;47.288;18.646;2023-11-19T04:45:50;100285.31;;;1.23;96.63
74218;BME280;62579;47.288;18.646;2023-11-19T04:48:15;100293.41;;;1.19;96.55
74218;BME280;62579;47.288;18.646;2023-11-19T04:50:41;100296.62;;;1.14;96.78
74218;BME280;62579;47.288;18.646;2023-11-19T04:53:06;100297.44;;;1.11;97.07
74218;BME280;62579;47.288;18.646;2023-11-19T04:55:31;100298.97;;;1.12;97.21
74218;BME280;62579;47.288;18.646;2023-11-19T04:57:56;100298.97;;;1.12;97.41
74218;BME280;62579;47.288;18.646;2023-11-19T05:00:21;100296.38;;;1.08;97.85
74218;BME280;62579;47.288;18.646;2023-11-19T05:02:47;100285.56;;;1.12;98.11
74218;BME280;62579;47.288;18.646;2023-11-19T05:05:15;100279.12;;;1.09;98.35
74218;BME280;62579;47.288;18.646;2023-11-19T05:07:40;100284.06;;;1.11;98.56
74218;BME280;62579;47.288;18.646;2023-11-19T05:10:06;100284.41;;;1.13;98.42
74218;BME280;62579;47.288;18.646;2023-11-19T05:12:32;100285.97;;;1.10;98.88
74218;BME280;62579;47.288;18.646;2023-11-19T05:14:57;100289.84;;;1.09;99.31
74218;BME280;62579;47.288;18.646;2023-11-19T05:17:23;100291.00;;;1.08;100.00
74218;BME280;62579;47.288;18.646;2023-11-19T05:19:48;100300.69;;;1.18;100.00
74218;BME280;62579;47.288;18.646;2023-11-19T05:22:13;100297.87;;;1.09;100.00
74218;BME280;62579;47.288;18.646;2023-11-19T05:24:39;100290.59;;;1.10;100.00
74218;BME280;62579;47.288;18.646;2023-11-19T05:27:05;100288.00;;;0.90;100.00
74218;BME280;62579;47.288;18.646;2023-11-19T05:29:32;100283.97;;;0.98;100.00
74218;BME280;62579;47.288;18.646;2023-11-19T05:31:57;100288.50;;;1.01;100.00
74218;BME280;62579;47.288;18.646;2023-11-19T05:34:22;100298.41;;;1.04;100.00
74218;BME280;62579;47.288;18.646;2023-11-19T05:36:47;100305.50;;;1.11;100.00
74218;BME280;62579;47.288;18.646;2023-11-19T05:39:13;100295.44;;;1.15;100.00
74218;BME280;62579;47.288;18.646;2023-11-19T05:41:38;100291.94;;;1.18;100.00
74218;BME280;62579;47.288;18.646;2023-11-19T05:44:04;100284.97;;;1.20;100.00
74218;BME280;62579;47.288;18.646;2023-11-19T05:46:30;100270.38;;;1.21;100.00
74218;BME280;62579;47.288;18.646;2023-11-19T05:48:55;100273.06;;;1.21;100.00
74218;BME280;62579;47.288;18.646;2023-11-19T05:51:20;100284.78;;;1.28;100.00
74218;BME280;62579;47.288;18.646;2023-11-19T05:53:46;100267.94;;;1.27;100.00
74218;BME280;62579;47.288;18.646;2023-11-19T05:56:11;100261.50;;;1.25;100.00
74218;BME280;62579;47.288;18.646;2023-11-19T05:58:36;100275.81;;;1.34;100.00
74218;BME280;62579;47.288;18.646;2023-11-19T06:01:02;100263.00;;;1.26;100.00
74218;BME280;62579;47.288;18.646;2023-11-19T06:03:28;100265.03;;;1.05;100.00
74218;BME280;62579;47.288;18.646;2023-11-19T06:05:53;100255.50;;;1.20;100.00
74218;BME280;62579;47.288;18.646;2023-11-19T06:08:21;100273.84;;;1.06;100.00
74218;BME280;62579;47.288;18.646;2023-11-19T06:10:47;100278.38;;;1.09;100.00
74218;BME280;62579;47.288;18.646;2023-11-19T06:13:12;100279.53;;;1.08;100.00
74218;BME280;62579;47.288;18.646;2023-11-19T06:15:40;100272.41;;;1.17;100.00
74218;BME280;62579;47.288;18.646;2023-11-19T06:18:05;100274.13;;;1.24;100.00
74218;BME280;62579;47.288;18.646;2023-11-19T06:20:30;100269.25;;;1.35;100.00
74218;BME280;62579;47.288;18.646;2023-11-19T06:22:56;100262.22;;;1.41;100.00
74218;BME280;62579;47.288;18.646;2023-11-19T06:25:23;100252.88;;;1.46;100.00
74218;BME280;62579;47.288;18.646;2023-11-19T06:27:49;100262.12;;;1.45;100.00
74218;BME280;62579;47.288;18.646;2023-11-19T06:30:14;100261.94;;;1.52;100.00
74218;BME280;62579;47.288;18.646;2023-11-19T06:32:39;100250.03;;;1.53;100.00
74218;BME280;62579;47.288;18.646;2023-11-19T06:35:05;100248.97;;;1.50;100.00
74218;BME280;62579;47.288;18.646;2023-11-19T06:37:30;100257.97;;;1.56;100.00
74218;BME280;62579;47.288;18.646;2023-11-19T06:39:55;100244.69;;;1.53;100.00
74218;BME280;62579;47.288;18.646;2023-11-19T06:42:21;100250.91;;;1.62;100.00
74218;BME280;62579;47.288;18.646;2023-11-19T06:44:46;100239.56;;;1.71;100.00
74218;BME280;62579;47.288;18.646;2023-11-19T06:47:11;100236.81;;;1.46;100.00
74218;BME280;62579;47.288;18.646;2023-11-19T06:49:36;100242.50;;;1.48;100.00
74218;BME280;62579;47.288;18.646;2023-11-19T06:52:02;100241.63;;;1.51;100.00
74218;BME280;62579;47.288;18.646;2023-11-19T06:54:29;100235.78;;;1.56;100.00
74218;BME280;62579;47.288;18.646;2023-11-19T06:56:55;100227.37;;;1.54;100.00
74218;BME280;62579;47.288;18.646;2023-11-19T06:59:22;100209.91;;;1.49;100.00
74218;BME280;62579;47.288;18.646;2023-11-19T07:01:47;100190.97;;;1.40;100.00
74218;BME280;62579;47.288;18.646;2023-11-19T07:04:12;100190.19;;;1.56;100.00
74218;BME280;62579;47.288;18.646;2023-11-19T07:06:38;100194.69;;;1.59;100.00
74218;BME280;62579;47.288;18.646;2023-11-19T07:09:06;100216.28;;;1.68;100.00
74218;BME280;62579;47.288;18.646;2023-11-19T07:11:40;100214.56;;;1.74;100.00
74218;BME280;62579;47.288;18.646;2023-11-19T07:14:07;100212.75;;;1.83;100.00
74218;BME280;62579;47.288;18.646;2023-11-19T07:16:33;100207.94;;;1.91;100.00
74218;BME280;62579;47.288;18.646;2023-11-19T07:19:05;100200.00;;;2.00;100.00
74218;BME280;62579;47.288;18.646;2023-11-19T07:21:31;100206.44;;;2.03;100.00
74218;BME280;62579;47.288;18.646;2023-11-19T07:23:58;100207.94;;;1.91;100.00
74218;BME280;62579;47.288;18.646;2023-11-19T07:26:23;100212.56;;;2.03;100.00
74218;BME280;62579;47.288;18.646;2023-11-19T07:28:49;100216.84;;;1.88;100.00
74218;BME280;62579;47.288;18.646;2023-11-19T07:31:14;100217.03;;;1.81;100.00
74218;BME280;62579;47.288;18.646;2023-11-19T07:36:11;100223.19;;;1.94;100.00
74218;BME280;62579;47.288;18.646;2023-11-19T07:38:37;100225.84;;;1.94;100.00
74218;BME280;62579;47.288;18.646;2023-11-19T07:41:03;100231.91;;;2.11;100.00
74218;BME280;62579;47.288;18.646;2023-11-19T07:43:30;100238.56;;;2.19;100.00
74218;BME280;62579;47.288;18.646;2023-11-19T07:45:55;100243.19;;;2.31;100.00
74218;BME280;62579;47.288;18.646;2023-11-19T07:48:24;100240.81;;;2.08;100.00
74218;BME280;62579;47.288;18.646;2023-11-19T07:50:49;100246.50;;;2.22;100.00
74218;BME280;62579;47.288;18.646;2023-11-19T07:53:18;100251.13;;;2.34;100.00
74218;BME280;62579;47.288;18.646;2023-11-19T07:55:43;100252.19;;;2.24;100.00
74218;BME280;62579;47.288;18.646;2023-11-19T07:58:09;100248.03;;;2.36;100.00
74218;BME280;62579;47.288;18.646;2023-11-19T08:00:35;100249.19;;;2.48;100.00
74218;BME280;62579;47.288;18.646;2023-11-19T08:03:00;100244.25;;;2.46;100.00
74218;BME280;62579;47.288;18.646;2023-11-19T08:05:26;100241.13;;;2.48;100.00
74218;BME280;62579;47.288;18.646;2023-11-19T08:07:51;100239.19;;;2.48;100.00
74218;BME280;62579;47.288;18.646;2023-11-19T08:10:18;100229.88;;;2.53;100.00
74218;BME280;62579;47.288;18.646;2023-11-19T08:12:45;100226.28;;;2.56;100.00
74218;BME280;62579;47.288;18.646;2023-11-19T08:15:17;100216.75;;;2.55;100.00
74218;BME280;62579;47.288;18.646;2023-11-19T08:17:43;100213.75;;;2.53;100.00
74218;BME280;62579;47.288;18.646;2023-11-19T08:20:08;100207.31;;;2.50;100.00
74218;BME280;62579;47.288;18.646;2023-11-19T08:22:37;100192.25;;;2.53;100.00
74218;BME280;62579;47.288;18.646;2023-11-19T08:25:04;100181.72;;;2.58;100.00
74218;BME280;62579;47.288;18.646;2023-11-19T08:27:33;100176.00;;;2.56;100.00
74218;BME280;62579;47.288;18.646;2023-11-19T08:29:59;100157.81;;;2.73;100.00
74218;BME280;62579;47.288;18.646;2023-11-19T08:42:39;100182.53;;;3.02;100.00
74218;BME280;62579;47.288;18.646;2023-11-19T08:45:06;100186.34;;;2.92;100.00
74218;BME280;62579;47.288;18.646;2023-11-19T08:47:31;100192.63;;;3.11;100.00
74218;BME280;62579;47.288;18.646;2023-11-19T08:49:56;100174.00;;;3.16;100.00
74218;BME280;62579;47.288;18.646;2023-11-19T08:52:22;100142.66;;;3.22;100.00
74218;BME280;62579;47.288;18.646;2023-11-19T08:54:47;100128.16;;;3.20;100.00
74218;BME280;62579;47.288;18.646;2023-11-19T08:57:12;100171.91;;;3.20;100.00
74218;BME280;62579;47.288;18.646;2023-11-19T08:59:37;100168.81;;;3.22;100.00
74218;BME280;62579;47.288;18.646;2023-11-19T09:02:06;100159.41;;;3.04;100.00
74218;BME280;62579;47.288;18.646;2023-11-19T09:04:35;100157.84;;;3.16;100.00
74218;BME280;62579;47.288;18.646;2023-11-19T09:07:01;100157.78;;;3.29;100.00
74218;BME280;62579;47.288;18.646;2023-11-19T09:09:26;100159.03;;;3.37;100.00
74218;BME280;62579;47.288;18.646;2023-11-19T09:11:51;100150.84;;;3.40;100.00
74218;BME280;62579;47.288;18.646;2023-11-19T09:14:16;100155.22;;;3.47;100.00
74218;BME280;62579;47.288;18.646;2023-11-19T09:16:43;100161.97;;;3.51;100.00
74218;BME280;62579;47.288;18.646;2023-11-19T09:19:11;100167.09;;;3.58;100.00
74218;BME280;62579;47.288;18.646;2023-11-19T09:21:36;100158.25;;;3.58;100.00
74218;BME280;62579;47.288;18.646;2023-11-19T09:24:05;100150.81;;;3.62;99.94
74218;BME280;62579;47.288;18.646;2023-11-19T09:26:31;100144.56;;;3.65;100.00
74218;BME280;62579;47.288;18.646;2023-11-19T09:28:56;100145.19;;;3.47;100.00
74218;BME280;62579;47.288;18.646;2023-11-19T09:31:22;100144.47;;;3.47;100.00
74218;BME280;62579;47.288;18.646;2023-11-19T09:33:47;100147.50;;;3.36;100.00
74218;BME280;62579;47.288;18.646;2023-11-19T09:36:12;100150.28;;;3.45;100.00
74218;BME280;62579;47.288;18.646;2023-11-19T09:38:41;100148.22;;;3.49;100.00
74218;BME280;62579;47.288;18.646;2023-11-19T09:41:07;100152.06;;;3.70;100.00
74218;BME280;62579;47.288;18.646;2023-11-19T09:43:37;100142.25;;;3.54;100.00
74218;BME280;62579;47.288;18.646;2023-11-19T09:46:06;100137.94;;;3.57;100.00
74218;BME280;62579;47.288;18.646;2023-11-19T09:48:37;100141.69;;;3.59;100.00
74218;BME280;62579;47.288;18.646;2023-11-19T09:51:04;100135.53;;;3.59;100.00
74218;BME280;62579;47.288;18.646;2023-11-19T09:53:31;100130.91;;;3.59;100.00
74218;BME280;62579;47.288;18.646;2023-11-19T09:55:56;100124.78;;;3.59;100.00
74218;BME280;62579;47.288;18.646;2023-11-19T09:58:22;100118.34;;;3.56;100.00
74218;BME280;62579;47.288;18.646;2023-11-19T10:00:49;100110.00;;;3.63;100.00
74218;BME280;62579;47.288;18.646;2023-11-19T10:05:50;100111.56;;;3.83;100.00
74218;BME280;62579;47.288;18.646;2023-11-19T10:08:15;100100.28;;;3.66;100.00
74218;BME280;62579;47.288;18.646;2023-11-19T10:10:41;100118.69;;;3.68;100.00
74218;BME280;62579;47.288;18.646;2023-11-19T10:13:07;100120.75;;;3.63;100.00
74218;BME280;62579;47.288;18.646;2023-11-19T10:15:35;100114.38;;;3.70;100.00
74218;BME280;62579;47.288;18.646;2023-11-19T10:18:01;100119.31;;;3.72;100.00
74218;BME280;62579;47.288;18.646;2023-11-19T10:20:26;100110.09;;;3.82;100.00
74218;BME280;62579;47.288;18.646;2023-11-19T10:22:55;100094.53;;;3.86;100.00
74218;BME280;62579;47.288;18.646;2023-11-19T10:25:24;100090.22;;;3.88;100.00
74218;BME280;62579;47.288;18.646;2023-11-19T10:27:50;100071.81;;;3.96;100.00
74218;BME280;62579;47.288;18.646;2023-11-19T10:30:22;100065.97;;;3.88;100.00
74218;BME280;62579;47.288;18.646;2023-11-19T10:35:54;100076.34;;;4.08;100.00
74218;BME280;62579;47.288;18.646;2023-11-19T10:38:21;100072.03;;;4.19;100.00
74218;BME280;62579;47.288;18.646;2023-11-19T10:40:47;100071.78;;;4.36;100.00
74218;BME280;62579;47.288;18.646;2023-11-19T10:43:12;100062.62;;;4.42;100.00
74218;BME280;62579;47.288;18.646;2023-11-19T10:45:38;100043.47;;;4.49;99.90
74218;BME280;62579;47.288;18.646;2023-11-19T10:48:04;100042.56;;;4.52;99.47
74218;BME280;62579;47.288;18.646;2023-11-19T10:56:00;100032.25;;;4.60;97.16
74218;BME280;62579;47.288;18.646;2023-11-19T10:58:27;100038.38;;;4.60;96.66
74218;BME280;62579;47.288;18.646;2023-11-19T11:00:57;100032.50;;;4.71;96.39
74218;BME280;62579;47.288;18.646;2023-11-19T11:03:25;100009.19;;;4.59;96.43
74218;BME280;62579;47.288;18.646;2023-11-19T11:05:53;100003.19;;;4.55;96.33
74218;BME280;62579;47.288;18.646;2023-11-19T11:08:20;99998.69;;;4.61;96.29
74218;BME280;62579;47.288;18.646;2023-11-19T11:13:16;100006.06;;;4.51;96.87
74218;BME280;62579;47.288;18.646;2023-11-19T11:15:43;99983.59;;;4.54;97.06
74218;BME280;62579;47.288;18.646;2023-11-19T11:18:11;99991.22;;;4.56;96.45
74218;BME280;62579;47.288;18.646;2023-11-19T11:20:37;99983.56;;;4.72;95.89
74218;BME280;62579;47.288;18.646;2023-11-19T11:31:37;99971.97;;;4.90;92.35
74218;BME280;62579;47.288;18.646;2023-11-19T11:36:34;99988.97;;;5.14;91.79
74218;BME280;62579;47.288;18.646;2023-11-19T11:39:02;99975.47;;;5.14;90.03
74218;BME280;62579;47.288;18.646;2023-11-19T11:41:32;99977.00;;;5.15;87.79
74218;BME280;62579;47.288;18.646;2023-11-19T11:43:58;99984.19;;;5.18;88.29
74218;BME280;62579;47.288;18.646;2023-11-19T11:49:04;99965.41;;;5.24;87.91
74218;BME280;62579;47.288;18.646;2023-11-19T11:59:36;99946.81;;;5.26;88.85
74218;BME280;62579;47.288;18.646;2023-11-19T12:02:01;99935.06;;;5.38;88.54
74218;BME280;62579;47.288;18.646;2023-11-19T12:04:28;99945.13;;;5.37;88.30
74218;BME280;62579;47.288;18.646;2023-11-19T12:09:52;99931.13;;;5.48;87.36
74218;BME280;62579;47.288;18.646;2023-11-19T12:12:19;99929.25;;;5.54;86.59
74218;BME280;62579;47.288;18.646;2023-11-19T12:20:04;99915.69;;;5.49;87.77
74218;BME280;62579;47.288;18.646;2023-11-19T12:22:39;99902.19;;;5.49;87.92
74218;BME280;62579;47.288;18.646;2023-11-19T12:25:05;99915.97;;;5.51;86.85
74218;BME280;62579;47.288;18.646;2023-11-19T12:27:31;99907.59;;;5.49;86.49
74218;BME280;62579;47.288;18.646;2023-11-19T12:29:56;99908.19;;;5.43;86.89
74218;BME280;62579;47.288;18.646;2023-11-19T12:32:22;99915.03;;;5.54;86.54
74218;BME280;62579;47.288;18.646;2023-11-19T12:34:47;99903.59;;;5.59;86.39
74218;BME280;62579;47.288;18.646;2023-11-19T12:37:12;99895.94;;;5.57;86.71
74218;BME280;62579;47.288;18.646;2023-11-19T12:39:38;99892.53;;;5.57;90.06
74218;BME280;62579;47.288;18.646;2023-11-19T12:42:03;99889.59;;;5.69;87.08
74218;BME280;62579;47.288;18.646;2023-11-19T12:44:28;99877.53;;;5.56;85.78
74218;BME280;62579;47.288;18.646;2023-11-19T12:47:04;99874.34;;;5.57;85.88
74218;BME280;62579;47.288;18.646;2023-11-19T12:49:30;99858.91;;;5.58;85.43
74218;BME280;62579;47.288;18.646;2023-11-19T12:51:55;99860.69;;;5.61;85.16
74218;BME280;62579;47.288;18.646;2023-11-19T12:54:31;99862.63;;;5.60;83.79
74218;BME280;62579;47.288;18.646;2023-11-19T12:56:56;99850.94;;;5.63;83.82
74218;BME280;62579;47.288;18.646;2023-11-19T12:59:21;99844.03;;;5.62;85.29
74218;BME280;62579;47.288;18.646;2023-11-19T13:01:53;99836.50;;;5.66;85.20
74218;BME280;62579;47.288;18.646;2023-11-19T13:04:19;99841.44;;;6.06;100.00
74218;BME280;62579;47.288;18.646;2023-11-19T13:06:47;99846.28;;;6.02;88.94
74218;BME280;62579;47.288;18.646;2023-11-19T13:09:26;99844.12;;;5.91;85.33
74218;BME280;62579;47.288;18.646;2023-11-19T13:11:51;99836.66;;;5.86;84.22
74218;BME280;62579;47.288;18.646;2023-11-19T13:14:17;99835.28;;;5.91;83.67
74218;BME280;62579;47.288;18.646;2023-11-19T13:16:43;99842.16;;;5.92;83.51
74218;BME280;62579;47.288;18.646;2023-11-19T13:19:10;99845.88;;;5.94;82.96
74218;BME280;62579;47.288;18.646;2023-11-19T13:21:36;99840.19;;;5.92;82.79
74218;BME280;62579;47.288;18.646;2023-11-19T13:24:02;99833.50;;;5.88;83.72
74218;BME280;62579;47.288;18.646;2023-11-19T13:26:27;99840.84;;;5.87;82.87
74218;BME280;62579;47.288;18.646;2023-11-19T13:28:52;99840.78;;;5.96;82.74
74218;BME280;62579;47.288;18.646;2023-11-19T13:31:18;99841.06;;;5.98;82.89
74218;BME280;62579;47.288;18.646;2023-11-19T13:33:43;99837.16;;;5.99;83.18
74218;BME280;62579;47.288;18.646;2023-11-19T13:36:08;99840.87;;;6.02;83.78
74218;BME280;62579;47.288;18.646;2023-11-19T13:38:34;99837.59;;;5.98;84.69
74218;BME280;62579;47.288;18.646;2023-11-19T13:41:03;99842.25;;;5.97;84.37
74218;BME280;62579;47.288;18.646;2023-11-19T13:43:34;99839.19;;;6.04;83.32